Startpagina
METAR-TAF:

METAR-TAF

Vliegvelden :

Yeovilton, Engeland

breedte: 51-00N, lengte: 002-38W, hoogte: 23 m

Actueel weer

Dit bericht is 25 minuten geleden gemaakt, om 17:50 UTC
Wind 9 kt uit het noordnoordoosten
Temperatuur 15°C
Vochtigheid 82%
Druk 1007 hPa
Zicht 10 km of meer
Weinig wolken op 2500 ft
Gebroken wolken op 6000 ft
Gebroken wolken op 8000 ft

METAR: EGDY 031750Z 03009KT 9999 FEW025 BKN060 BKN080 15/12 Q1007 TEMPO 7000 -RA SCT020 RMK BLU TEMPO WHT

Tijdstip: 19:15 (18:15 UTC)

Verwachting

Dit bericht is 1 uur en het 47 minuten geleden gemaakt, om 16:28 UTC
Verwachting geldig van 03 om 18 UTC tot 04 om 03 UTC
Wind 10 kt uit het noordnoordwesten
Zicht: 7000 m
Verspreide wolken op 1500 ft
regen
Tijdelijke
van 03 om 18 UTC tot 04 om 02 UTC
Verspreide wolken op 800 ft

TAF: EGDY 031628Z 0318/0403 33010KT 7000 RA SCT015 TEMPO 0318/0402 SCT008

Waarnemingen en weersverwachtingen van meer dan 4000 vliegvelden (METAR en TAF).

De beschikbare stations zijn de gele en rode punten op de kaart.

Ga met uw muis naar het station om de naam te zien.

Klik dan om waarnemingen en weersverwachtingen te zien.

kaart wijzigen: klik op de groene knoppen met een zwart kruis om in te zoomen, op de groene knop met een streepje om uit te zoomen of op de groene pijlen voor aangrenzende kaarten.


METAR-TAF: